createdAt,value
2019-05-25T00:01:38.334Z,19.61
2019-05-25T00:04:08.325Z,19.77
2019-05-25T00:06:38.308Z,19.69
2019-05-25T00:09:09.087Z,19.65
2019-05-25T00:11:38.999Z,19.54
2019-05-25T00:14:08.912Z,19.65
2019-05-25T00:16:38.934Z,19.47
2019-05-25T00:19:08.850Z,19.52
2019-05-25T00:21:39.118Z,19.44
2019-05-25T00:24:12.483Z,19.37
2019-05-25T00:26:40.751Z,19.26
2019-05-25T00:29:10.671Z,19.33
2019-05-25T00:31:40.643Z,19.28
2019-05-25T00:34:10.693Z,19.11
2019-05-25T00:36:40.605Z,18.92
2019-05-25T00:39:10.724Z,19.02
2019-05-25T00:41:40.676Z,18.86
2019-05-25T00:44:11.014Z,18.78
2019-05-25T00:46:40.954Z,18.68
2019-05-25T00:49:11.183Z,18.79
2019-05-25T00:51:41.076Z,18.85
2019-05-25T00:54:25.370Z,18.56
2019-05-25T00:56:42.684Z,18.55
2019-05-25T00:59:12.571Z,18.58
2019-05-25T01:01:42.499Z,18.39
2019-05-25T01:04:12.579Z,18.28
2019-05-25T01:06:42.568Z,18.27
2019-05-25T01:09:12.563Z,18.10
2019-05-25T01:11:42.476Z,18.10
2019-05-25T01:14:12.457Z,18.05
2019-05-25T01:16:42.466Z,18.05
2019-05-25T01:19:12.355Z,18.15
2019-05-25T01:21:42.287Z,18.21
2019-05-25T01:24:12.182Z,18.01
2019-05-25T01:26:42.096Z,17.83
2019-05-25T01:29:11.970Z,17.85
2019-05-25T01:31:41.975Z,17.82
2019-05-25T01:34:11.995Z,17.66
2019-05-25T01:36:42.099Z,17.68
2019-05-25T01:39:12.107Z,17.56
2019-05-25T01:41:42.190Z,17.54
2019-05-25T01:44:12.244Z,17.67
2019-05-25T01:46:42.226Z,17.51
2019-05-25T01:49:12.246Z,17.20
2019-05-25T01:51:42.158Z,17.33
2019-05-25T01:54:12.157Z,17.33
2019-05-25T01:56:42.111Z,17.22
2019-05-25T01:59:12.007Z,16.95
2019-05-25T02:01:41.970Z,16.84
2019-05-25T02:04:11.839Z,16.89
2019-05-25T02:06:41.758Z,16.92
2019-05-25T02:09:11.821Z,16.79
2019-05-25T02:11:41.747Z,17.00
2019-05-25T02:14:11.647Z,16.89
2019-05-25T02:16:41.576Z,16.95
2019-05-25T02:19:11.558Z,16.81
2019-05-25T02:21:41.428Z,16.93
2019-05-25T02:24:11.330Z,16.77
2019-05-25T02:26:41.248Z,16.52
2019-05-25T02:29:11.155Z,16.56
2019-05-25T02:31:41.133Z,16.66
2019-05-25T02:34:10.996Z,16.50
2019-05-25T02:36:40.880Z,16.54
2019-05-25T02:39:10.838Z,16.58
2019-05-25T02:41:40.723Z,16.59
2019-05-25T02:44:10.667Z,16.41
2019-05-25T02:46:40.561Z,16.42
2019-05-25T02:49:10.509Z,16.29
2019-05-25T02:51:40.474Z,16.34
2019-05-25T02:54:10.373Z,16.11
2019-05-25T02:56:40.278Z,16.16
2019-05-25T02:59:10.150Z,16.00
2019-05-25T03:01:40.175Z,15.95
2019-05-25T03:04:10.056Z,15.79
2019-05-25T03:06:41.383Z,16.04
2019-05-25T03:09:11.333Z,15.92
2019-05-25T03:11:42.216Z,15.90
2019-05-25T03:14:12.294Z,15.99
2019-05-25T03:16:42.255Z,15.91
2019-05-25T03:19:12.133Z,15.98
2019-05-25T03:21:42.005Z,15.90
2019-05-25T03:24:11.903Z,15.94
2019-05-25T03:26:41.780Z,15.98
2019-05-25T03:29:12.274Z,15.48
2019-05-25T03:31:42.164Z,15.81
2019-05-25T03:34:12.038Z,15.73
2019-05-25T03:36:42.039Z,15.76
2019-05-25T03:39:11.927Z,15.81
2019-05-25T03:41:41.804Z,16.13
2019-05-25T03:44:11.686Z,16.54
2019-05-25T03:46:41.648Z,18.40
2019-05-25T03:49:11.527Z,19.67
2019-05-25T03:51:41.426Z,18.77
2019-05-25T03:54:11.407Z,17.95
2019-05-25T03:56:41.358Z,16.97
2019-05-25T03:59:11.232Z,16.31
2019-05-25T04:01:41.114Z,15.90
2019-05-25T04:04:10.995Z,15.98
2019-05-25T04:06:40.947Z,15.82
2019-05-25T04:09:10.850Z,16.05
2019-05-25T04:11:40.804Z,16.12
2019-05-25T04:14:10.688Z,15.81
2019-05-25T04:16:40.619Z,15.96
2019-05-25T04:19:10.521Z,16.19
2019-05-25T04:21:40.385Z,16.99
2019-05-25T04:24:15.808Z,19.31
2019-05-25T04:26:45.721Z,20.20
2019-05-25T04:29:15.663Z,19.92
2019-05-25T04:31:45.539Z,18.37
2019-05-25T04:34:15.433Z,17.85
2019-05-25T04:36:45.321Z,18.01
2019-05-25T04:39:15.218Z,17.70
2019-05-25T04:41:45.199Z,17.34
2019-05-25T04:44:15.082Z,17.14
2019-05-25T04:46:44.964Z,16.90
2019-05-25T04:49:14.877Z,16.83
2019-05-25T04:51:44.748Z,16.94
2019-05-25T04:54:14.728Z,16.94
2019-05-25T04:56:44.699Z,17.12
2019-05-25T04:59:14.831Z,16.94
2019-05-25T05:01:44.724Z,17.13
2019-05-25T05:04:14.634Z,17.21
2019-05-25T05:06:44.550Z,17.31
2019-05-25T05:09:14.429Z,17.23
2019-05-25T05:11:44.319Z,16.88
2019-05-25T05:14:14.206Z,16.78
2019-05-25T05:16:44.110Z,16.71
2019-05-25T05:19:14.000Z,16.87
2019-05-25T05:21:43.875Z,17.02
2019-05-25T05:24:13.807Z,16.66
2019-05-25T05:26:55.412Z,17.15
2019-05-25T05:29:15.725Z,17.21
2019-05-25T05:31:45.805Z,19.38
2019-05-25T05:34:15.729Z,18.57
2019-05-25T05:36:48.152Z,17.72
2019-05-25T05:39:18.276Z,17.26
2019-05-25T05:41:52.383Z,17.34
2019-05-25T05:44:25.072Z,16.70
2019-05-25T05:46:58.146Z,16.83
2019-05-25T05:49:30.773Z,16.74
2019-05-25T05:52:03.810Z,17.12
2019-05-25T05:54:34.659Z,17.35
2019-05-25T05:57:12.499Z,16.95
2019-05-25T05:59:36.387Z,16.91
2019-05-25T06:02:06.355Z,16.89
2019-05-25T06:04:36.336Z,16.97
2019-05-25T06:07:06.289Z,17.56
2019-05-25T06:09:36.191Z,17.41
2019-05-25T06:12:06.178Z,16.88
2019-05-25T06:14:36.082Z,16.88
2019-05-25T06:17:06.140Z,17.03
2019-05-25T06:19:36.034Z,17.24
2019-05-25T06:22:06.095Z,18.24
2019-05-25T06:24:36.004Z,17.91
2019-05-25T06:27:06.112Z,18.04
2019-05-25T06:29:36.007Z,17.81
2019-05-25T06:32:06.201Z,17.65
2019-05-25T06:34:36.095Z,17.46
2019-05-25T06:37:05.970Z,17.27
2019-05-25T06:39:36.175Z,17.60
2019-05-25T06:42:06.155Z,17.46
2019-05-25T06:44:36.083Z,17.77
2019-05-25T06:47:06.065Z,17.97
2019-05-25T06:49:35.958Z,17.29
2019-05-25T06:52:05.918Z,17.54
2019-05-25T06:54:35.827Z,17.47
2019-05-25T06:57:05.956Z,16.82
2019-05-25T06:59:35.946Z,16.91
2019-05-25T07:02:06.076Z,17.11
2019-05-25T07:04:36.067Z,17.67
2019-05-25T07:07:06.111Z,17.37
2019-05-25T07:09:36.037Z,17.52
2019-05-25T07:12:06.012Z,17.60
2019-05-25T07:14:36.115Z,17.15
2019-05-25T07:17:06.256Z,17.53
2019-05-25T07:19:36.165Z,17.66
2019-05-25T07:22:06.133Z,17.75
2019-05-25T07:24:36.013Z,18.05
2019-05-25T07:27:06.068Z,17.76
2019-05-25T07:29:35.943Z,17.45
2019-05-25T07:32:06.085Z,17.03
2019-05-25T07:34:35.956Z,17.11
2019-05-25T07:37:05.977Z,17.33
2019-05-25T07:39:35.853Z,17.56
2019-05-25T07:42:06.077Z,17.23
2019-05-25T07:44:35.972Z,17.19
2019-05-25T07:47:05.925Z,17.59
2019-05-25T07:49:35.863Z,17.63
2019-05-25T07:52:05.906Z,17.66
2019-05-25T07:54:35.904Z,17.71
2019-05-25T07:57:05.980Z,17.41
2019-05-25T07:59:35.912Z,17.40
2019-05-25T08:02:05.872Z,17.14
2019-05-25T08:04:35.897Z,17.42
2019-05-25T08:07:05.872Z,17.27
2019-05-25T08:09:35.799Z,17.69
2019-05-25T08:12:06.074Z,17.60
2019-05-25T08:14:35.996Z,17.33
2019-05-25T08:17:06.030Z,17.34
2019-05-25T08:19:36.173Z,17.30
2019-05-25T08:22:06.288Z,17.46
2019-05-25T08:24:36.268Z,17.78
2019-05-25T08:27:06.417Z,17.56
2019-05-25T08:29:36.311Z,17.25
2019-05-25T08:32:06.255Z,17.25
2019-05-25T08:34:36.196Z,17.36
2019-05-25T08:37:06.173Z,17.41
2019-05-25T08:39:36.171Z,17.11
2019-05-25T08:42:06.240Z,17.27
2019-05-25T08:44:36.207Z,17.27
2019-05-25T08:47:06.567Z,17.22
2019-05-25T08:49:36.523Z,17.41
2019-05-25T08:52:06.494Z,17.10
2019-05-25T08:54:36.469Z,17.27
2019-05-25T08:57:06.575Z,17.47
2019-05-25T08:59:36.561Z,17.74
2019-05-25T09:02:06.476Z,18.20
2019-05-25T09:04:36.393Z,17.96
2019-05-25T09:07:06.490Z,18.34
2019-05-25T09:09:36.405Z,18.43
2019-05-25T09:12:06.437Z,18.28
2019-05-25T09:14:36.408Z,18.03
2019-05-25T09:17:06.276Z,17.53
2019-05-25T09:19:36.178Z,17.31
2019-05-25T09:22:06.187Z,17.36
2019-05-25T09:24:36.169Z,17.35
2019-05-25T09:27:06.140Z,17.40
2019-05-25T09:29:36.048Z,17.36
2019-05-25T09:32:07.134Z,17.29
2019-05-25T09:34:37.268Z,17.46
2019-05-25T09:37:07.243Z,17.59
2019-05-25T09:39:37.138Z,17.28
2019-05-25T09:42:07.060Z,17.63
2019-05-25T09:44:37.044Z,18.16
2019-05-25T09:47:06.949Z,18.38
2019-05-25T09:49:36.850Z,18.30
2019-05-25T09:52:06.849Z,17.98
2019-05-25T09:54:36.774Z,18.38
2019-05-25T09:57:07.628Z,18.39
2019-05-25T09:59:37.639Z,18.79
2019-05-25T10:02:07.688Z,18.62
2019-05-25T10:04:37.653Z,18.10
2019-05-25T10:07:07.785Z,18.62
2019-05-25T10:09:40.100Z,18.27
2019-05-25T10:12:09.471Z,18.70
2019-05-25T10:14:39.517Z,18.12
2019-05-25T10:17:09.540Z,18.72
2019-05-25T10:19:39.527Z,18.04
2019-05-25T10:22:09.485Z,18.73
2019-05-25T10:24:39.390Z,18.55
2019-05-25T10:27:09.308Z,18.93
2019-05-25T10:29:39.391Z,18.86
2019-05-25T10:32:09.351Z,18.99
2019-05-25T10:34:39.283Z,18.67
2019-05-25T10:37:09.300Z,18.75
2019-05-25T10:39:39.208Z,19.39
2019-05-25T10:42:09.160Z,19.53
2019-05-25T10:44:39.109Z,19.45
2019-05-25T10:47:09.027Z,20.00
2019-05-25T10:49:38.950Z,19.87
2019-05-25T10:52:08.864Z,19.14
2019-05-25T10:54:38.853Z,19.36
2019-05-25T10:57:08.746Z,19.48
2019-05-25T10:59:51.869Z,19.58
2019-05-25T11:02:10.662Z,19.95
2019-05-25T11:04:40.621Z,20.30
2019-05-25T11:07:10.505Z,20.13
2019-05-25T11:09:40.542Z,20.29
2019-05-25T11:12:10.445Z,20.35
2019-05-25T11:14:40.386Z,20.31
2019-05-25T11:17:10.405Z,20.31
2019-05-25T11:19:40.325Z,20.03
2019-05-25T11:22:10.221Z,19.58
2019-05-25T11:24:40.128Z,19.49
2019-05-25T11:27:10.137Z,19.67
2019-05-25T11:29:40.065Z,19.58
2019-05-25T11:32:10.046Z,19.35
2019-05-25T11:34:40.017Z,19.32
2019-05-25T11:37:10.005Z,19.18
2019-05-25T11:39:39.958Z,18.70
2019-05-25T11:42:09.919Z,19.24
2019-05-25T11:44:39.856Z,19.39
2019-05-25T11:47:09.781Z,19.58
2019-05-25T11:49:39.733Z,19.37
2019-05-25T11:52:09.685Z,19.89
2019-05-25T11:54:39.767Z,19.72
2019-05-25T11:57:09.770Z,19.99
2019-05-25T11:59:39.712Z,19.92
2019-05-25T12:02:09.640Z,19.78
2019-05-25T12:04:39.578Z,19.94
2019-05-25T12:07:09.593Z,19.20
2019-05-25T12:09:39.527Z,18.98
2019-05-25T12:12:09.601Z,19.45
2019-05-25T12:14:39.565Z,19.64
2019-05-25T12:17:09.617Z,19.60
2019-05-25T12:19:39.703Z,19.60
2019-05-25T12:22:09.691Z,18.30
2019-05-25T12:24:39.681Z,18.75
2019-05-25T12:27:09.616Z,19.25
2019-05-25T12:29:39.530Z,18.96
2019-05-25T12:32:09.453Z,18.06
2019-05-25T12:34:39.359Z,18.33
2019-05-25T12:37:09.492Z,18.70
2019-05-25T12:39:39.416Z,18.53
2019-05-25T12:42:10.063Z,18.76
2019-05-25T12:44:40.073Z,19.07
2019-05-25T12:47:09.975Z,18.86
2019-05-25T12:49:50.102Z,18.71
2019-05-25T12:52:11.659Z,19.03
2019-05-25T12:54:41.617Z,19.08
2019-05-25T12:57:11.605Z,18.55
2019-05-25T12:59:41.601Z,18.25
2019-05-25T13:02:11.567Z,18.83
2019-05-25T13:04:41.495Z,18.30
2019-05-25T13:07:11.518Z,18.42
2019-05-25T13:09:41.519Z,18.13
2019-05-25T13:12:11.540Z,18.48
2019-05-25T13:14:41.499Z,18.90
2019-05-25T13:17:11.415Z,18.58
2019-05-25T13:19:41.391Z,18.65
2019-05-25T13:22:11.306Z,18.97
2019-05-25T13:24:41.241Z,19.17
2019-05-25T13:27:11.242Z,19.06
2019-05-25T13:29:41.177Z,18.82
2019-05-25T13:32:11.184Z,18.11
2019-05-25T13:34:41.491Z,17.99
2019-05-25T13:37:11.461Z,18.24
2019-05-25T13:39:41.448Z,18.58
2019-05-25T13:42:11.390Z,18.15
2019-05-25T13:44:41.291Z,18.49
2019-05-25T13:47:11.185Z,18.38
2019-05-25T13:49:41.136Z,18.35
2019-05-25T13:52:11.034Z,19.02
2019-05-25T13:54:40.937Z,19.05
2019-05-25T13:57:10.850Z,18.75
2019-05-25T13:59:40.845Z,18.67
2019-05-25T14:02:10.935Z,18.47
2019-05-25T14:04:40.815Z,18.70
2019-05-25T14:07:10.912Z,18.93
2019-05-25T14:09:40.896Z,18.83
2019-05-25T14:12:10.892Z,18.60
2019-05-25T14:14:40.792Z,18.99
2019-05-25T14:17:10.715Z,18.85
2019-05-25T14:19:41.590Z,18.93
2019-05-25T14:22:11.616Z,18.85
2019-05-25T14:24:41.526Z,18.92
2019-05-25T14:27:11.494Z,18.57
2019-05-25T14:29:41.386Z,18.19
2019-05-25T14:32:11.299Z,18.33
2019-05-25T14:34:41.169Z,18.49
2019-05-25T14:37:11.204Z,18.25
2019-05-25T14:39:41.135Z,18.49
2019-05-25T14:42:11.114Z,18.32
2019-05-25T14:44:41.092Z,18.31
2019-05-25T14:47:11.176Z,18.56
2019-05-25T14:49:41.230Z,18.67
2019-05-25T14:52:11.193Z,18.55
2019-05-25T14:54:41.140Z,17.96
2019-05-25T14:57:11.286Z,18.22
2019-05-25T14:59:41.180Z,18.69
2019-05-25T15:02:11.110Z,18.69
2019-05-25T15:04:41.122Z,18.37
2019-05-25T15:07:11.059Z,18.26
2019-05-25T15:09:41.049Z,18.04
2019-05-25T15:12:11.036Z,18.12
2019-05-25T15:14:40.925Z,18.44
2019-05-25T15:17:10.820Z,18.35
2019-05-25T15:19:40.712Z,18.83
2019-05-25T15:22:11.069Z,19.15
2019-05-25T15:24:41.154Z,18.99
2019-05-25T15:27:11.071Z,18.90
2019-05-25T15:29:40.961Z,18.93
2019-05-25T15:32:20.202Z,18.51
2019-05-25T15:34:42.553Z,18.40
2019-05-25T15:37:12.593Z,18.71
2019-05-25T15:39:42.462Z,18.34
2019-05-25T15:42:12.518Z,18.19
2019-05-25T15:44:42.395Z,18.21
2019-05-25T15:47:12.316Z,18.39
2019-05-25T15:49:42.201Z,18.21
2019-05-25T15:52:12.378Z,18.84
2019-05-25T15:54:42.565Z,19.04
2019-05-25T15:57:12.527Z,18.21
2019-05-25T15:59:42.402Z,17.84
2019-05-25T16:02:12.549Z,17.90
2019-05-25T16:04:42.424Z,18.45
2019-05-25T16:07:12.441Z,18.16
2019-05-25T16:09:42.319Z,18.38
2019-05-25T16:12:12.205Z,18.83
2019-05-25T16:14:42.145Z,19.10
2019-05-25T16:17:12.032Z,18.51
2019-05-25T16:19:41.910Z,18.77
2019-05-25T16:22:11.879Z,18.81
2019-05-25T16:24:41.765Z,18.95
2019-05-25T16:27:11.730Z,19.82
2019-05-25T16:29:41.698Z,19.77
2019-05-25T16:32:11.667Z,19.63
2019-05-25T16:34:41.539Z,19.70
2019-05-25T16:37:11.532Z,19.80
2019-05-25T16:39:41.803Z,19.81
2019-05-25T16:42:11.705Z,19.85
2019-05-25T16:44:41.827Z,20.02
2019-05-25T16:47:11.891Z,19.99
2019-05-25T16:49:41.760Z,19.92
2019-05-25T16:52:11.633Z,19.72
2019-05-25T16:54:41.546Z,19.83
2019-05-25T16:57:11.415Z,19.88
2019-05-25T16:59:41.323Z,19.98
2019-05-25T17:02:11.195Z,20.04
2019-05-25T17:04:41.093Z,20.00
2019-05-25T17:07:10.979Z,20.13
2019-05-25T17:09:41.538Z,20.04
2019-05-25T17:12:11.766Z,20.22
2019-05-25T17:14:42.461Z,20.01
2019-05-25T17:17:12.707Z,19.85
2019-05-25T17:19:43.145Z,19.92
2019-05-25T17:22:13.652Z,19.92
2019-05-25T17:24:44.112Z,20.08
2019-05-25T17:27:14.893Z,19.31
2019-05-25T17:29:45.349Z,18.99
2019-05-25T17:32:15.663Z,18.51
2019-05-25T17:34:46.324Z,18.66
2019-05-25T17:37:16.459Z,18.88
2019-05-25T17:39:46.680Z,18.53
2019-05-25T17:42:17.115Z,18.52
2019-05-25T17:44:46.996Z,18.08
2019-05-25T17:47:16.880Z,18.14
2019-05-25T17:49:47.315Z,18.27
2019-05-25T17:52:17.170Z,18.30
2019-05-25T17:54:47.045Z,18.41
2019-05-25T17:57:16.909Z,18.44
2019-05-25T17:59:47.089Z,18.05
2019-05-25T18:02:17.046Z,18.11
2019-05-25T18:04:46.923Z,18.42
2019-05-25T18:07:16.882Z,18.61
2019-05-25T18:09:46.758Z,18.48
2019-05-25T18:12:16.630Z,18.58
2019-05-25T18:14:46.572Z,18.45
2019-05-25T18:17:16.695Z,18.39
2019-05-25T18:19:46.611Z,18.32
2019-05-25T18:22:16.469Z,18.37
2019-05-25T18:24:46.490Z,18.35
2019-05-25T18:27:17.626Z,18.34
2019-05-25T18:29:47.520Z,18.26
2019-05-25T18:32:17.484Z,18.52
2019-05-25T18:34:47.420Z,18.29
2019-05-25T18:37:17.347Z,18.42
2019-05-25T18:39:47.669Z,18.35
2019-05-25T18:42:17.664Z,18.35
2019-05-25T18:44:47.635Z,18.34
2019-05-25T18:47:17.704Z,18.25
2019-05-25T18:49:47.852Z,18.37
2019-05-25T18:52:18.378Z,18.18
2019-05-25T18:54:48.510Z,18.26
2019-05-25T18:57:18.439Z,18.25
2019-05-25T18:59:48.451Z,18.30
2019-05-25T19:02:18.804Z,18.41
2019-05-25T19:04:58.988Z,18.40
2019-05-25T19:07:20.703Z,18.43
2019-05-25T19:09:50.677Z,18.33
2019-05-25T19:12:20.864Z,18.40
2019-05-25T19:14:50.792Z,18.37
2019-05-25T19:17:21.067Z,18.30
2019-05-25T19:19:50.958Z,18.25
2019-05-25T19:22:20.914Z,18.28
2019-05-25T19:24:51.284Z,18.36
2019-05-25T19:27:21.292Z,18.14
2019-05-25T19:29:51.289Z,18.01
2019-05-25T19:32:21.306Z,18.24
2019-05-25T19:34:59.738Z,17.76
2019-05-25T19:37:23.405Z,17.96
2019-05-25T19:39:53.307Z,17.79
2019-05-25T19:42:23.341Z,16.82
2019-05-25T19:44:53.636Z,17.69
2019-05-25T19:47:23.796Z,17.23
2019-05-25T19:49:53.909Z,18.14
2019-05-25T19:52:23.961Z,18.27
2019-05-25T19:54:53.996Z,18.30
2019-05-25T19:57:24.898Z,18.26
2019-05-25T19:59:54.889Z,18.13
2019-05-25T20:02:24.902Z,18.17
2019-05-25T20:04:55.260Z,18.16
2019-05-25T20:07:25.214Z,18.02
2019-05-25T20:09:55.392Z,17.87
2019-05-25T20:12:25.316Z,17.91
2019-05-25T20:14:55.237Z,17.97
2019-05-25T20:17:25.626Z,17.55
2019-05-25T20:19:55.547Z,17.57
2019-05-25T20:22:25.673Z,17.83
2019-05-25T20:24:55.664Z,17.78
2019-05-25T20:27:25.761Z,17.72
2019-05-25T20:29:55.791Z,17.62
2019-05-25T20:32:25.818Z,17.55
2019-05-25T20:34:55.970Z,17.48
2019-05-25T20:37:28.778Z,17.56
2019-05-25T20:39:58.825Z,17.53
2019-05-25T20:42:28.782Z,17.55
2019-05-25T20:44:58.750Z,17.56
2019-05-25T20:47:28.859Z,17.56
2019-05-25T20:49:59.222Z,16.96
2019-05-25T20:52:29.095Z,17.42
2019-05-25T20:54:58.998Z,17.39
2019-05-25T20:57:28.939Z,17.26
2019-05-25T20:59:59.180Z,17.41
2019-05-25T21:02:29.107Z,17.50
2019-05-25T21:05:00.912Z,17.53
2019-05-25T21:07:31.047Z,17.22
2019-05-25T21:10:00.980Z,17.32
2019-05-25T21:12:32.046Z,17.40
2019-05-25T21:15:02.217Z,17.38
2019-05-25T21:17:32.366Z,17.55
2019-05-25T21:20:02.334Z,17.58
2019-05-25T21:22:32.294Z,17.51
2019-05-25T21:25:05.981Z,17.34
2019-05-25T21:27:34.396Z,17.35
2019-05-25T21:30:10.180Z,17.34
2019-05-25T21:32:40.063Z,17.34
2019-05-25T21:35:10.423Z,17.18
2019-05-25T21:37:42.735Z,17.42
2019-05-25T21:40:13.467Z,17.03
2019-05-25T21:42:43.442Z,17.20
2019-05-25T21:45:15.628Z,17.10
2019-05-25T21:47:45.855Z,16.40
2019-05-25T21:50:17.265Z,16.76
2019-05-25T21:52:47.160Z,17.25
2019-05-25T21:55:17.241Z,17.11
2019-05-25T21:57:47.779Z,16.91
2019-05-25T22:00:21.355Z,16.97
2019-05-25T22:02:51.387Z,17.06
2019-05-25T22:05:22.201Z,16.05
2019-05-25T22:07:52.107Z,16.73
2019-05-25T22:10:22.071Z,16.06
2019-05-25T22:12:53.190Z,16.65
2019-05-25T22:15:23.093Z,16.90
2019-05-25T22:17:53.258Z,16.98
2019-05-25T22:20:23.243Z,15.83
2019-05-25T22:22:53.179Z,16.70
2019-05-25T22:25:23.101Z,16.82
2019-05-25T22:27:53.041Z,16.80
2019-05-25T22:30:24.398Z,16.89
2019-05-25T22:32:54.474Z,17.03
2019-05-25T22:35:25.285Z,16.86
2019-05-25T22:37:55.303Z,16.86
2019-05-25T22:40:25.261Z,16.24
2019-05-25T22:42:55.181Z,16.86
2019-05-25T22:45:25.195Z,16.85
2019-05-25T22:47:55.290Z,16.75
2019-05-25T22:50:25.203Z,16.79
2019-05-25T22:52:55.720Z,16.75
2019-05-25T22:55:25.889Z,16.96
2019-05-25T22:57:55.966Z,16.37
2019-05-25T23:00:25.982Z,16.81
2019-05-25T23:02:56.026Z,16.80
2019-05-25T23:05:25.902Z,16.84
2019-05-25T23:07:56.351Z,16.69
2019-05-25T23:10:26.687Z,16.81
2019-05-25T23:12:56.566Z,16.65
2019-05-25T23:15:26.650Z,16.66
2019-05-25T23:17:56.615Z,16.48
2019-05-25T23:20:26.903Z,15.93
2019-05-25T23:22:56.810Z,16.76
2019-05-25T23:25:26.811Z,16.63
2019-05-25T23:27:56.713Z,16.43
2019-05-25T23:30:26.768Z,16.45
2019-05-25T23:32:56.686Z,16.48
2019-05-25T23:35:26.686Z,16.45
2019-05-25T23:37:56.674Z,16.54
2019-05-25T23:40:26.644Z,16.29
2019-05-25T23:42:56.803Z,16.23
2019-05-25T23:45:26.700Z,16.43
2019-05-25T23:47:56.689Z,16.30
2019-05-25T23:50:26.837Z,16.50
2019-05-25T23:52:56.726Z,16.60
2019-05-25T23:55:26.633Z,16.57
2019-05-25T23:57:56.522Z,15.91
